Aviation Digital Data Service (ADDS)

Output produced by METARs form (1849 UTC 22 May 2019)
found at http://aviationweather.gov/metar/data/
 
METAR text: KPGV 221845Z AUTO 07010KT 033V093 10SM CLR 28/10 A3023 RMK AO2
Conditions at: KPGV (PITT GREENVILLE , NC, US) observed 1845 UTC 22 May 2019
Temperature: 28.0°C (82°F)
Dewpoint: 10.0°C (50°F) [RH = 32%]
Pressure (altimeter): 30.23 inches Hg (1023.8 mb)
Winds: from the ENE (70 degrees) at 12 MPH (10 knots; 5.1 m/s)
Visibility: 10 or more miles (16+ km)
Ceiling: at least 12,000 feet AGL
Clouds: sky clear below 12,000 feet AGL
Weather: automated observation with no human augmentation;
there may or may not be significant weather present at this time

METAR text: KPGV 221825Z AUTO 07007KT 023V113 10SM CLR 27/10 A3023 RMK AO2
Conditions at: KPGV (PITT GREENVILLE , NC, US) observed 1825 UTC 22 May 2019
Temperature: 27.0°C (81°F)
Dewpoint: 10.0°C (50°F) [RH = 34%]
Pressure (altimeter): 30.23 inches Hg (1023.8 mb)
Winds: from the ENE (70 degrees) at 8 MPH (7 knots; 3.6 m/s)
Visibility: 10 or more miles (16+ km)
Ceiling: at least 12,000 feet AGL
Clouds: sky clear below 12,000 feet AGL
Weather: automated observation with no human augmentation;
there may or may not be significant weather present at this time

METAR text: KPGV 221805Z AUTO 05007KT 10SM CLR 27/10 A3024 RMK AO2
Conditions at: KPGV (PITT GREENVILLE , NC, US) observed 1805 UTC 22 May 2019
Temperature: 27.0°C (81°F)
Dewpoint: 10.0°C (50°F) [RH = 34%]
Pressure (altimeter): 30.24 inches Hg (1024.1 mb)
Winds: from the NE (50 degrees) at 8 MPH (7 knots; 3.6 m/s)
Visibility: 10 or more miles (16+ km)
Ceiling: at least 12,000 feet AGL
Clouds: sky clear below 12,000 feet AGL
Weather: automated observation with no human augmentation;
there may or may not be significant weather present at this time

METAR text: KPGV 221745Z AUTO 06004KT 10SM CLR 27/09 A3024 RMK AO2
Conditions at: KPGV (PITT GREENVILLE , NC, US) observed 1745 UTC 22 May 2019
Temperature: 27.0°C (81°F)
Dewpoint: 9.0°C (48°F) [RH = 32%]
Pressure (altimeter): 30.24 inches Hg (1024.1 mb)
Winds: from the ENE (60 degrees) at 5 MPH (4 knots; 2.1 m/s)
Visibility: 10 or more miles (16+ km)
Ceiling: at least 12,000 feet AGL
Clouds: sky clear below 12,000 feet AGL
Weather: automated observation with no human augmentation;
there may or may not be significant weather present at this time

METAR text: KPGV 221725Z AUTO 06009KT 10SM CLR 27/10 A3024 RMK AO2
Conditions at: KPGV (PITT GREENVILLE , NC, US) observed 1725 UTC 22 May 2019
Temperature: 27.0°C (81°F)
Dewpoint: 10.0°C (50°F) [RH = 34%]
Pressure (altimeter): 30.24 inches Hg (1024.1 mb)
Winds: from the ENE (60 degrees) at 10 MPH (9 knots; 4.6 m/s)
Visibility: 10 or more miles (16+ km)
Ceiling: at least 12,000 feet AGL
Clouds: sky clear below 12,000 feet AGL
Weather: automated observation with no human augmentation;
there may or may not be significant weather present at this time

METAR text: KPGV 221705Z AUTO 07003KT 10SM CLR 26/09 A3024 RMK AO2
Conditions at: KPGV (PITT GREENVILLE , NC, US) observed 1705 UTC 22 May 2019
Temperature: 26.0°C (79°F)
Dewpoint: 9.0°C (48°F) [RH = 34%]
Pressure (altimeter): 30.24 inches Hg (1024.1 mb)
Winds: from the ENE (70 degrees) at 3 MPH (3 knots; 1.5 m/s)
Visibility: 10 or more miles (16+ km)
Ceiling: at least 12,000 feet AGL
Clouds: sky clear below 12,000 feet AGL
Weather: automated observation with no human augmentation;
there may or may not be significant weather present at this time

Forecast for: KPGV (PITT GREENVILLE , NC, US)
Text: KPGV 221830Z 2218/2318 08006KT P6SM SKC
Forecast period: 1800 to 2300 UTC 22 May 2019
Forecast type: FROM: standard forecast or significant change
Winds: from the E (80 degrees) at 7 MPH (6 knots; 3.1 m/s)
Visibility: 6 or more miles 10+ km)
Clouds: clear skies
Weather: no significant weather forecast for this period
Text: FM222300 00000KT P6SM SKC
Forecast period: 2300 UTC 22 May 2019 to 1400 UTC 23 May 2019
Forecast type: FROM: standard forecast or significant change
Winds: calm
Visibility: 6 or more miles 10+ km)
Clouds: clear skies
Weather: no significant weather forecast for this period
Text: FM231400 22005KT P6SM BKN100 AMD LTD TO CLD VIS AND WIND
Forecast period: 1400 to 1800 UTC 23 May 2019
Forecast type: FROM: standard forecast or significant change
Winds: from the SW (220 degrees) at 6 MPH (5 knots; 2.6 m/s)
Visibility: 6 or more miles 10+ km)
Ceiling: 10000 feet AGL
Clouds: broken clouds at 10000 feet AGL
Weather: no significant weather forecast for this period